Terminal Aerodrome Forecast
Issued by NWS

Home | Current Version | Previous Version | Text Only | Print | Product List | Glossary On
Versions: 1 2 3 4 5 6 7 8 9 10 11 12 13 14 15 16 17 18 19 20 21 22 23 24 25 26 27 28 29 30 31 32 33 34 35 36 37 38 39 40 41 42 43 44 45 46
000
FTUS45 KBOU 241120
TAFAPA
TAF
KAPA 241120Z 2412/2512 19011KT P6SM FEW090 SCT130 BKN220
     FM241400 VRB05KT P6SM VCSH FEW090 BKN140
     FM241600 12012KT P6SM SCT090 BKN140
     FM242100 10008KT P6SM SCT090 BKN120 PROB30 2421/2503 VRB20G35KT
      TSRA BKN080CB
     FM250300 15012KT P6SM FEW090 BKN140
     FM250800 18010KT P6SM SCT140 BKN200=

USA.gov is the U.S. government's official web portal to all federal, state and local government web resources and services.